MS00 weather

Double O Ranch Airport
Olive Branch, Mississippi, United States

Public forecast

Using degrees Fahrenheit for public forecast. Weather courtesy of forecast.io.

METAR (pilot weather report)

Closest report is Memphis International Airport, 4.4 nm (8.2 km) NW. Retrieved 2019/08/23 20:54 UTC (37 minutes ago):

KMEM 232054Z 02009KT 10SM SCT035 SCT250 33/22 A2995 RMK AO2 SLP137 T03280222 58013

TAF (pilot weather forecast)

Closest forecast is Memphis International Airport, 4.4 nm (8.2 km) NW. Retrieved 2019/08/23 18:40 UTC (3 hours ago):

TAF KMEM 231737Z 2318/2424 06005KT P6SM SCT025 BKN100 FM232100 05006KT P6SM VCTS FEW035CB BKN040 FM240000 05006KT P6SM SCT040 BKN150 FM240900 05005KT P6SM VCSH SCT009 OVC015 TEMPO 2410/2413 5SM -SHRA BR BKN009 FM241700 06006KT P6SM SCT015 BKN025 FM242100 06007KT P6SM VCTS BKN035CB